sensor_id;sensor_type;location;lat;lon;timestamp;pressure;altitude;pressure_sealevel;temperature;humidity
16030;BME280;34770;49.272;11.070;2023-05-02T00:01:52;97714.81;;;7.78;77.36
16030;BME280;34770;49.272;11.070;2023-05-02T00:04:18;97710.16;;;7.80;77.56
16030;BME280;34770;49.272;11.070;2023-05-02T00:06:43;97710.28;;;7.90;77.42
16030;BME280;34770;49.272;11.070;2023-05-02T00:09:11;97707.59;;;7.90;77.18
16030;BME280;34770;49.272;11.070;2023-05-02T00:11:36;97701.22;;;7.91;76.97
16030;BME280;34770;49.272;11.070;2023-05-02T00:14:02;97697.28;;;7.84;76.86
16030;BME280;34770;49.272;11.070;2023-05-02T00:16:27;97705.25;;;7.85;76.77
16030;BME280;34770;49.272;11.070;2023-05-02T00:18:52;97691.88;;;7.73;76.35
16030;BME280;34770;49.272;11.070;2023-05-02T00:21:18;97694.94;;;7.79;76.50
16030;BME280;34770;49.272;11.070;2023-05-02T00:23:43;97704.16;;;7.77;76.49
16030;BME280;34770;49.272;11.070;2023-05-02T00:26:08;97687.94;;;7.54;76.27
16030;BME280;34770;49.272;11.070;2023-05-02T00:28:34;97695.56;;;7.61;76.31
16030;BME280;34770;49.272;11.070;2023-05-02T00:30:59;97694.06;;;7.56;76.81
16030;BME280;34770;49.272;11.070;2023-05-02T00:33:25;97694.69;;;7.49;76.68
16030;BME280;34770;49.272;11.070;2023-05-02T00:35:50;97679.47;;;7.48;76.82
16030;BME280;34770;49.272;11.070;2023-05-02T00:38:16;97700.31;;;7.57;77.23
16030;BME280;34770;49.272;11.070;2023-05-02T00:40:46;97698.25;;;7.61;76.84
16030;BME280;34770;49.272;11.070;2023-05-02T00:43:13;97691.13;;;7.59;76.78
16030;BME280;34770;49.272;11.070;2023-05-02T00:45:39;97694.06;;;7.56;76.33
16030;BME280;34770;49.272;11.070;2023-05-02T00:48:06;97677.97;;;7.33;76.40
16030;BME280;34770;49.272;11.070;2023-05-02T00:50:40;97515.28;;;6.32;76.34
16030;BME280;34770;49.272;11.070;2023-05-02T00:53:07;97650.13;;;7.10;76.07
16030;BME280;34770;49.272;11.070;2023-05-02T00:55:33;97709.22;;;7.35;76.16
16030;BME280;34770;49.272;11.070;2023-05-02T00:57:59;97701.78;;;7.04;75.58
16030;BME280;34770;49.272;11.070;2023-05-02T01:05:50;97699.31;;;7.01;76.70
16030;BME280;34770;49.272;11.070;2023-05-02T01:08:34;97710.38;;;7.09;76.73
16030;BME280;34770;49.272;11.070;2023-05-02T01:11:26;97718.69;;;7.06;76.71
16030;BME280;34770;49.272;11.070;2023-05-02T01:13:58;97710.38;;;7.09;76.88
16030;BME280;34770;49.272;11.070;2023-05-02T01:16:27;97716.72;;;7.08;76.85
16030;BME280;34770;49.272;11.070;2023-05-02T01:21:20;97702.00;;;7.01;76.07
16030;BME280;34770;49.272;11.070;2023-05-02T01:29:08;97725.81;;;6.83;76.36
16030;BME280;34770;49.272;11.070;2023-05-02T01:31:40;97738.56;;;6.69;76.87
16030;BME280;34770;49.272;11.070;2023-05-02T01:34:08;97732.88;;;6.73;77.03
16030;BME280;34770;49.272;11.070;2023-05-02T01:36:39;97729.63;;;6.68;76.82
16030;BME280;34770;49.272;11.070;2023-05-02T01:39:08;97732.88;;;6.73;76.67
16030;BME280;34770;49.272;11.070;2023-05-02T01:41:35;97734.47;;;6.76;76.46
16030;BME280;34770;49.272;11.070;2023-05-02T01:44:02;97741.53;;;6.77;76.56
16030;BME280;34770;49.272;11.070;2023-05-02T01:46:35;97739.22;;;6.72;76.54
16030;BME280;34770;49.272;11.070;2023-05-02T01:49:05;97728.25;;;6.63;76.11
16030;BME280;34770;49.272;11.070;2023-05-02T01:51:33;97745.56;;;6.71;75.95
16030;BME280;34770;49.272;11.070;2023-05-02T01:54:01;97729.13;;;6.63;76.10
16030;BME280;34770;49.272;11.070;2023-05-02T01:56:30;97707.34;;;6.43;76.17
16030;BME280;34770;49.272;11.070;2023-05-02T01:58:57;97723.00;;;6.61;76.18
16030;BME280;34770;49.272;11.070;2023-05-02T02:01:24;97743.66;;;6.61;75.60
16030;BME280;34770;49.272;11.070;2023-05-02T02:03:53;97730.78;;;6.53;76.07
16030;BME280;34770;49.272;11.070;2023-05-02T02:06:20;97721.09;;;6.51;76.13
16030;BME280;34770;49.272;11.070;2023-05-02T02:08:46;97744.34;;;6.52;75.90
16030;BME280;34770;49.272;11.070;2023-05-02T02:11:16;97737.88;;;6.54;76.17
16030;BME280;34770;49.272;11.070;2023-05-02T02:13:48;97730.50;;;6.32;76.28
16030;BME280;34770;49.272;11.070;2023-05-02T02:16:24;97723.16;;;6.11;77.24
16030;BME280;34770;49.272;11.070;2023-05-02T02:18:55;97742.84;;;6.11;77.73
16030;BME280;34770;49.272;11.070;2023-05-02T02:21:22;97740.38;;;5.83;77.88
16030;BME280;34770;49.272;11.070;2023-05-02T02:23:52;97738.84;;;5.79;78.65
16030;BME280;34770;49.272;11.070;2023-05-02T02:26:20;97741.31;;;5.82;78.69
16030;BME280;34770;49.272;11.070;2023-05-02T02:28:47;97742.53;;;5.78;78.61
16030;BME280;34770;49.272;11.070;2023-05-02T02:31:12;97748.63;;;5.67;78.78
16030;BME280;34770;49.272;11.070;2023-05-02T02:33:38;97741.31;;;5.57;79.50
16030;BME280;34770;49.272;11.070;2023-05-02T02:38:53;97740.34;;;5.45;80.53
16030;BME280;34770;49.272;11.070;2023-05-02T02:41:35;97738.84;;;5.54;80.15
16030;BME280;34770;49.272;11.070;2023-05-02T02:44:27;97751.00;;;5.72;79.87
16030;BME280;34770;49.272;11.070;2023-05-02T02:46:59;97744.13;;;5.80;79.16
16030;BME280;34770;49.272;11.070;2023-05-02T02:50:08;97749.22;;;5.85;78.82
16030;BME280;34770;49.272;11.070;2023-05-02T02:53:07;97729.38;;;5.73;79.14
16030;BME280;34770;49.272;11.070;2023-05-02T02:55:54;97749.84;;;5.89;78.88
16030;BME280;34770;49.272;11.070;2023-05-02T02:58:45;97755.03;;;5.92;79.08
16030;BME280;34770;49.272;11.070;2023-05-02T03:01:17;97753.94;;;5.94;79.05
16030;BME280;34770;49.272;11.070;2023-05-02T03:03:45;97756.09;;;5.89;78.80
16030;BME280;34770;49.272;11.070;2023-05-02T03:06:12;97759.19;;;5.83;78.22
16030;BME280;34770;49.272;11.070;2023-05-02T03:08:39;97773.47;;;5.71;78.74
16030;BME280;34770;49.272;11.070;2023-05-02T03:11:05;97755.09;;;5.65;79.29
16030;BME280;34770;49.272;11.070;2023-05-02T03:13:30;97755.31;;;5.74;78.77
16030;BME280;34770;49.272;11.070;2023-05-02T03:16:18;97777.88;;;5.84;78.68
16030;BME280;34770;49.272;11.070;2023-05-02T03:18:49;97775.00;;;5.88;77.69
16030;BME280;34770;49.272;11.070;2023-05-02T03:21:14;97777.81;;;5.86;76.99
16030;BME280;34770;49.272;11.070;2023-05-02T03:23:39;97780.50;;;5.86;76.95
16030;BME280;34770;49.272;11.070;2023-05-02T03:26:05;97762.41;;;5.63;76.59
16030;BME280;34770;49.272;11.070;2023-05-02T03:28:31;97778.19;;;5.67;77.03
16030;BME280;34770;49.272;11.070;2023-05-02T03:30:56;97793.03;;;5.73;77.10
16030;BME280;34770;49.272;11.070;2023-05-02T03:33:22;97767.13;;;5.47;76.94
16030;BME280;34770;49.272;11.070;2023-05-02T03:35:48;97816.69;;;5.68;76.73
16030;BME280;34770;49.272;11.070;2023-05-02T03:38:13;97811.19;;;5.57;77.15
16030;BME280;34770;49.272;11.070;2023-05-02T03:40:39;97816.78;;;5.54;77.07
16030;BME280;34770;49.272;11.070;2023-05-02T03:43:04;97822.78;;;5.45;77.49
16030;BME280;34770;49.272;11.070;2023-05-02T03:45:29;97813.22;;;5.41;77.04
16030;BME280;34770;49.272;11.070;2023-05-02T03:47:55;97830.81;;;5.45;76.16
16030;BME280;34770;49.272;11.070;2023-05-02T03:50:20;97824.16;;;5.38;77.02
16030;BME280;34770;49.272;11.070;2023-05-02T03:52:46;97831.69;;;5.33;76.81
16030;BME280;34770;49.272;11.070;2023-05-02T03:55:11;97817.72;;;5.28;77.05
16030;BME280;34770;49.272;11.070;2023-05-02T03:57:37;97832.69;;;5.44;77.29
16030;BME280;34770;49.272;11.070;2023-05-02T04:00:03;97829.22;;;5.42;77.05
16030;BME280;34770;49.272;11.070;2023-05-02T04:02:28;97822.28;;;5.25;77.40
16030;BME280;34770;49.272;11.070;2023-05-02T04:04:54;97822.41;;;5.24;77.30
16030;BME280;34770;49.272;11.070;2023-05-02T04:07:19;97824.56;;;5.19;77.64
16030;BME280;34770;49.272;11.070;2023-05-02T04:09:45;97828.53;;;5.26;78.03
16030;BME280;34770;49.272;11.070;2023-05-02T04:12:10;97842.63;;;5.30;78.07
16030;BME280;34770;49.272;11.070;2023-05-02T04:14:36;97842.69;;;5.15;78.88
16030;BME280;34770;49.272;11.070;2023-05-02T04:17:01;97825.69;;;5.02;78.33
16030;BME280;34770;49.272;11.070;2023-05-02T04:19:27;97849.28;;;5.24;78.89
16030;BME280;34770;49.272;11.070;2023-05-02T04:21:52;97841.22;;;5.24;79.03
16030;BME280;34770;49.272;11.070;2023-05-02T04:24:18;97842.03;;;5.39;79.17
16030;BME280;34770;49.272;11.070;2023-05-02T04:26:43;97849.56;;;5.46;78.70
16030;BME280;34770;49.272;11.070;2023-05-02T04:29:11;97848.53;;;5.35;78.67
16030;BME280;34770;49.272;11.070;2023-05-02T04:31:38;97863.91;;;5.33;78.98
16030;BME280;34770;49.272;11.070;2023-05-02T04:34:05;97840.16;;;5.26;78.92
16030;BME280;34770;49.272;11.070;2023-05-02T04:36:30;97841.31;;;5.22;79.54
16030;BME280;34770;49.272;11.070;2023-05-02T04:38:56;97866.00;;;5.42;79.75
16030;BME280;34770;49.272;11.070;2023-05-02T04:41:21;97869.03;;;5.62;79.78
16030;BME280;34770;49.272;11.070;2023-05-02T04:43:47;97861.22;;;5.72;79.99
16030;BME280;34770;49.272;11.070;2023-05-02T04:46:12;97861.63;;;5.66;79.36
16030;BME280;34770;49.272;11.070;2023-05-02T04:48:38;97865.56;;;5.87;80.08
16030;BME280;34770;49.272;11.070;2023-05-02T04:51:07;97861.19;;;6.11;79.60
16030;BME280;34770;49.272;11.070;2023-05-02T04:53:34;97896.25;;;6.35;79.33
16030;BME280;34770;49.272;11.070;2023-05-02T04:55:59;97895.28;;;6.49;79.24
16030;BME280;34770;49.272;11.070;2023-05-02T04:58:26;97885.91;;;6.54;78.07
16030;BME280;34770;49.272;11.070;2023-05-02T05:00:51;97874.94;;;6.45;78.07
16030;BME280;34770;49.272;11.070;2023-05-02T05:03:17;97902.59;;;6.47;78.24
16030;BME280;34770;49.272;11.070;2023-05-02T05:05:42;97903.78;;;6.30;78.63
16030;BME280;34770;49.272;11.070;2023-05-02T05:08:08;97902.84;;;6.31;79.55
16030;BME280;34770;49.272;11.070;2023-05-02T05:10:33;97903.03;;;6.40;79.33
16030;BME280;34770;49.272;11.070;2023-05-02T05:12:58;97910.13;;;6.67;79.44
16030;BME280;34770;49.272;11.070;2023-05-02T05:15:24;97903.09;;;6.77;78.59
16030;BME280;34770;49.272;11.070;2023-05-02T05:17:50;97901.19;;;6.79;78.74
16030;BME280;34770;49.272;11.070;2023-05-02T05:20:16;97909.66;;;6.98;79.05
16030;BME280;34770;49.272;11.070;2023-05-02T05:22:42;97913.81;;;7.02;78.63
16030;BME280;34770;49.272;11.070;2023-05-02T05:25:08;97904.91;;;6.89;78.78
16030;BME280;34770;49.272;11.070;2023-05-02T05:27:34;97921.06;;;7.02;78.69
16030;BME280;34770;49.272;11.070;2023-05-02T05:30:00;97907.44;;;7.16;78.90
16030;BME280;34770;49.272;11.070;2023-05-02T05:32:26;97926.31;;;7.39;78.83
16030;BME280;34770;49.272;11.070;2023-05-02T05:34:52;97917.59;;;7.36;77.97
16030;BME280;34770;49.272;11.070;2023-05-02T05:37:18;97928.69;;;7.68;78.37
16030;BME280;34770;49.272;11.070;2023-05-02T05:39:44;97914.88;;;7.83;78.16
16030;BME280;34770;49.272;11.070;2023-05-02T05:42:09;97926.63;;;8.06;77.92
16030;BME280;34770;49.272;11.070;2023-05-02T05:44:35;97928.22;;;8.32;77.48
16030;BME280;34770;49.272;11.070;2023-05-02T05:47:01;97923.25;;;8.26;76.38
16030;BME280;34770;49.272;11.070;2023-05-02T05:49:27;97924.66;;;8.43;77.18
16030;BME280;34770;49.272;11.070;2023-05-02T05:51:52;97931.91;;;8.53;76.63
16030;BME280;34770;49.272;11.070;2023-05-02T05:54:17;97938.09;;;8.78;76.94
16030;BME280;34770;49.272;11.070;2023-05-02T05:56:43;97940.44;;;8.93;76.35
16030;BME280;34770;49.272;11.070;2023-05-02T05:59:09;97933.19;;;8.83;76.25
16030;BME280;34770;49.272;11.070;2023-05-02T06:01:35;97912.81;;;8.90;76.31
16030;BME280;34770;49.272;11.070;2023-05-02T06:04:00;97938.47;;;9.17;76.24
16030;BME280;34770;49.272;11.070;2023-05-02T06:06:27;97939.91;;;9.32;75.62
16030;BME280;34770;49.272;11.070;2023-05-02T06:08:53;97939.56;;;9.37;75.60
16030;BME280;34770;49.272;11.070;2023-05-02T06:11:18;97953.50;;;9.64;75.84
16030;BME280;34770;49.272;11.070;2023-05-02T06:13:44;97960.13;;;9.71;75.67
16030;BME280;34770;49.272;11.070;2023-05-02T06:16:09;97946.59;;;9.71;75.46
16030;BME280;34770;49.272;11.070;2023-05-02T06:18:35;97957.91;;;9.76;75.61
16030;BME280;34770;49.272;11.070;2023-05-02T06:21:04;97966.06;;;9.97;75.21
16030;BME280;34770;49.272;11.070;2023-05-02T06:23:30;97954.63;;;10.05;75.49
16030;BME280;34770;49.272;11.070;2023-05-02T06:26:00;97967.88;;;10.19;75.14
16030;BME280;34770;49.272;11.070;2023-05-02T06:28:26;97972.81;;;10.03;75.66
16030;BME280;34770;49.272;11.070;2023-05-02T06:30:59;97968.41;;;10.13;75.77
16030;BME280;34770;49.272;11.070;2023-05-02T06:33:26;97982.41;;;10.18;74.73
16030;BME280;34770;49.272;11.070;2023-05-02T06:35:52;97960.84;;;10.16;75.65
16030;BME280;34770;49.272;11.070;2023-05-02T06:38:18;97980.47;;;10.40;75.55
16030;BME280;34770;49.272;11.070;2023-05-02T06:40:43;97991.94;;;10.54;75.44
16030;BME280;34770;49.272;11.070;2023-05-02T06:43:10;97986.47;;;10.65;74.88
16030;BME280;34770;49.272;11.070;2023-05-02T06:45:35;97992.22;;;10.71;74.29
16030;BME280;34770;49.272;11.070;2023-05-02T06:48:01;98007.63;;;10.71;74.63
16030;BME280;34770;49.272;11.070;2023-05-02T06:50:28;97991.59;;;10.58;74.92
16030;BME280;34770;49.272;11.070;2023-05-02T06:52:53;98000.44;;;10.60;74.49
16030;BME280;34770;49.272;11.070;2023-05-02T06:55:19;98012.75;;;10.53;75.28
16030;BME280;34770;49.272;11.070;2023-05-02T06:57:45;98008.94;;;10.56;75.63
16030;BME280;34770;49.272;11.070;2023-05-02T07:00:11;98016.69;;;10.60;75.00
16030;BME280;34770;49.272;11.070;2023-05-02T07:02:37;98026.44;;;10.72;75.03
16030;BME280;34770;49.272;11.070;2023-05-02T07:05:03;98021.56;;;10.87;74.52
16030;BME280;34770;49.272;11.070;2023-05-02T07:07:28;98002.28;;;10.80;74.51
16030;BME280;34770;49.272;11.070;2023-05-02T07:09:54;98016.75;;;11.11;74.19
16030;BME280;34770;49.272;11.070;2023-05-02T07:12:19;98038.75;;;11.18;75.36
16030;BME280;34770;49.272;11.070;2023-05-02T07:14:45;98034.25;;;11.28;74.72
16030;BME280;34770;49.272;11.070;2023-05-02T07:17:11;98044.75;;;11.42;74.55
16030;BME280;34770;49.272;11.070;2023-05-02T07:19:37;98037.31;;;11.44;74.26
16030;BME280;34770;49.272;11.070;2023-05-02T07:22:02;98033.88;;;11.42;74.65
16030;BME280;34770;49.272;11.070;2023-05-02T07:24:28;98053.50;;;11.55;74.01
16030;BME280;34770;49.272;11.070;2023-05-02T07:26:54;98046.97;;;11.37;73.46
16030;BME280;34770;49.272;11.070;2023-05-02T07:29:19;98037.00;;;11.37;73.79
16030;BME280;34770;49.272;11.070;2023-05-02T07:31:45;98051.75;;;11.44;74.25
16030;BME280;34770;49.272;11.070;2023-05-02T07:34:10;98042.75;;;11.44;74.40
16030;BME280;34770;49.272;11.070;2023-05-02T07:36:35;98057.41;;;11.62;73.97
16030;BME280;34770;49.272;11.070;2023-05-02T07:39:01;98060.13;;;11.62;73.07
16030;BME280;34770;49.272;11.070;2023-05-02T07:41:26;98056.41;;;11.63;73.75
16030;BME280;34770;49.272;11.070;2023-05-02T07:43:52;98053.22;;;11.58;73.69
16030;BME280;34770;49.272;11.070;2023-05-02T07:46:17;98060.38;;;11.59;73.03
16030;BME280;34770;49.272;11.070;2023-05-02T07:48:43;98070.66;;;11.55;72.89
16030;BME280;34770;49.272;11.070;2023-05-02T07:51:09;98065.41;;;11.63;72.85
16030;BME280;34770;49.272;11.070;2023-05-02T07:53:35;98077.84;;;11.66;72.37
16030;BME280;34770;49.272;11.070;2023-05-02T07:56:03;98064.44;;;11.44;71.47
16030;BME280;34770;49.272;11.070;2023-05-02T07:58:30;98056.63;;;11.50;72.12
16030;BME280;34770;49.272;11.070;2023-05-02T08:00:56;98078.25;;;11.61;71.58
16030;BME280;34770;49.272;11.070;2023-05-02T08:03:23;98074.19;;;11.77;71.85
16030;BME280;34770;49.272;11.070;2023-05-02T08:05:49;98080.94;;;11.82;71.61
16030;BME280;34770;49.272;11.070;2023-05-02T08:08:14;98088.56;;;11.98;71.39
16030;BME280;34770;49.272;11.070;2023-05-02T08:10:40;98094.50;;;12.12;71.31
16030;BME280;34770;49.272;11.070;2023-05-02T08:13:05;98091.94;;;12.20;71.50
16030;BME280;34770;49.272;11.070;2023-05-02T08:15:31;98093.63;;;12.21;71.71
16030;BME280;34770;49.272;11.070;2023-05-02T08:17:56;98090.91;;;12.12;72.12
16030;BME280;34770;49.272;11.070;2023-05-02T08:20:22;98099.34;;;12.09;71.98
16030;BME280;34770;49.272;11.070;2023-05-02T08:22:47;98109.94;;;12.21;71.96
16030;BME280;34770;49.272;11.070;2023-05-02T08:25:13;98109.66;;;12.15;72.51
16030;BME280;34770;49.272;11.070;2023-05-02T08:27:38;98117.22;;;12.21;72.24
16030;BME280;34770;49.272;11.070;2023-05-02T08:30:04;98104.66;;;12.20;72.24
16030;BME280;34770;49.272;11.070;2023-05-02T08:32:31;98114.34;;;12.13;72.42
16030;BME280;34770;49.272;11.070;2023-05-02T08:34:56;98083.25;;;11.96;72.51
16030;BME280;34770;49.272;11.070;2023-05-02T08:37:22;98101.63;;;12.13;72.69
16030;BME280;34770;49.272;11.070;2023-05-02T08:39:47;98102.06;;;12.18;72.57
16030;BME280;34770;49.272;11.070;2023-05-02T08:42:13;98115.34;;;12.12;72.44
16030;BME280;34770;49.272;11.070;2023-05-02T08:44:38;98109.66;;;12.15;72.49
16030;BME280;34770;49.272;11.070;2023-05-02T08:47:04;98124.81;;;12.27;72.50
16030;BME280;34770;49.272;11.070;2023-05-02T08:49:31;98124.53;;;12.30;72.77
16030;BME280;34770;49.272;11.070;2023-05-02T08:51:59;98113.78;;;12.19;72.90
16030;BME280;34770;49.272;11.070;2023-05-02T08:54:24;98130.13;;;12.29;72.65
16030;BME280;34770;49.272;11.070;2023-05-02T08:56:53;98140.88;;;12.40;72.59
16030;BME280;34770;49.272;11.070;2023-05-02T08:59:18;98132.41;;;12.33;72.51
16030;BME280;34770;49.272;11.070;2023-05-02T09:01:48;98141.16;;;12.37;72.71
16030;BME280;34770;49.272;11.070;2023-05-02T09:04:20;98133.75;;;12.48;72.87
16030;BME280;34770;49.272;11.070;2023-05-02T09:06:47;98142.94;;;12.57;72.48
16030;BME280;34770;49.272;11.070;2023-05-02T09:09:14;98142.38;;;12.63;72.73
16030;BME280;34770;49.272;11.070;2023-05-02T09:11:47;98155.06;;;12.43;71.63
16030;BME280;34770;49.272;11.070;2023-05-02T09:14:24;98157.47;;;12.46;71.01
16030;BME280;34770;49.272;11.070;2023-05-02T09:16:58;98143.22;;;12.54;71.00
16030;BME280;34770;49.272;11.070;2023-05-02T09:19:26;98164.97;;;12.73;70.89
16030;BME280;34770;49.272;11.070;2023-05-02T09:21:59;98162.78;;;12.48;69.73
16030;BME280;34770;49.272;11.070;2023-05-02T09:24:45;98160.06;;;11.98;71.29
16030;BME280;34770;49.272;11.070;2023-05-02T09:27:52;98157.03;;;12.41;70.87
16030;BME280;34770;49.272;11.070;2023-05-02T09:30:24;98164.56;;;12.77;71.23
16030;BME280;34770;49.272;11.070;2023-05-02T09:32:51;98167.75;;;13.40;69.96
16030;BME280;34770;49.272;11.070;2023-05-02T09:35:20;98145.59;;;13.81;67.79
16030;BME280;34770;49.272;11.070;2023-05-02T09:37:56;98171.84;;;13.82;65.81
16030;BME280;34770;49.272;11.070;2023-05-02T09:40:23;98159.88;;;14.03;67.13
16030;BME280;34770;49.272;11.070;2023-05-02T09:42:51;98160.19;;;14.27;65.76
16030;BME280;34770;49.272;11.070;2023-05-02T09:45:25;98153.47;;;14.58;64.53
16030;BME280;34770;49.272;11.070;2023-05-02T09:47:52;98163.03;;;14.89;63.78
16030;BME280;34770;49.272;11.070;2023-05-02T09:50:34;98153.91;;;15.16;63.47
16030;BME280;34770;49.272;11.070;2023-05-02T09:53:04;98169.63;;;15.75;61.87
16030;BME280;34770;49.272;11.070;2023-05-02T09:55:37;98154.72;;;15.87;60.10
16030;BME280;34770;49.272;11.070;2023-05-02T09:58:25;98162.81;;;15.53;58.32
16030;BME280;34770;49.272;11.070;2023-05-02T10:00:53;98164.78;;;16.12;60.37
16030;BME280;34770;49.272;11.070;2023-05-02T10:03:19;98163.44;;;16.16;59.45
16030;BME280;34770;49.272;11.070;2023-05-02T10:05:49;98153.16;;;16.10;59.05
16030;BME280;34770;49.272;11.070;2023-05-02T10:08:17;98165.78;;;16.71;59.24
16030;BME280;34770;49.272;11.070;2023-05-02T10:11:00;98157.25;;;16.14;56.23
16030;BME280;34770;49.272;11.070;2023-05-02T10:13:31;98143.25;;;16.51;57.39
16030;BME280;34770;49.272;11.070;2023-05-02T10:16:03;98157.50;;;17.13;57.56
16030;BME280;34770;49.272;11.070;2023-05-02T10:18:39;98142.69;;;16.73;56.33
16030;BME280;34770;49.272;11.070;2023-05-02T10:21:10;98155.28;;;17.16;55.39
16030;BME280;34770;49.272;11.070;2023-05-02T10:23:42;98156.00;;;17.43;56.14
16030;BME280;34770;49.272;11.070;2023-05-02T10:26:13;98161.31;;;17.52;55.53
16030;BME280;34770;49.272;11.070;2023-05-02T10:28:40;98154.81;;;17.45;53.53
16030;BME280;34770;49.272;11.070;2023-05-02T10:31:08;98155.34;;;16.41;55.59
16030;BME280;34770;49.272;11.070;2023-05-02T10:33:39;98163.00;;;16.29;57.05
16030;BME280;34770;49.272;11.070;2023-05-02T10:36:08;98151.72;;;16.32;55.43
16030;BME280;34770;49.272;11.070;2023-05-02T10:38:35;98157.81;;;17.02;55.46
16030;BME280;34770;49.272;11.070;2023-05-02T10:41:11;98150.00;;;17.39;53.67
16030;BME280;34770;49.272;11.070;2023-05-02T10:43:47;98135.78;;;17.27;55.08
16030;BME280;34770;49.272;11.070;2023-05-02T10:46:36;98150.34;;;17.28;54.18
16030;BME280;34770;49.272;11.070;2023-05-02T10:49:10;98143.53;;;16.66;53.59
16030;BME280;34770;49.272;11.070;2023-05-02T10:51:39;98135.31;;;17.56;53.44
16030;BME280;34770;49.272;11.070;2023-05-02T10:54:22;98130.19;;;18.79;52.63
16030;BME280;34770;49.272;11.070;2023-05-02T10:57:05;98125.38;;;17.79;51.57
16030;BME280;34770;49.272;11.070;2023-05-02T10:59:35;98137.84;;;17.17;54.85
16030;BME280;34770;49.272;11.070;2023-05-02T11:02:02;98137.03;;;17.65;53.63
16030;BME280;34770;49.272;11.070;2023-05-02T11:05:03;98137.72;;;17.59;52.08
16030;BME280;34770;49.272;11.070;2023-05-02T11:07:30;98121.91;;;17.85;52.14
16030;BME280;34770;49.272;11.070;2023-05-02T11:12:56;98122.75;;;17.13;52.11
16030;BME280;34770;49.272;11.070;2023-05-02T11:20:23;98099.28;;;18.85;50.31
16030;BME280;34770;49.272;11.070;2023-05-02T11:22:50;98104.09;;;18.52;48.81
16030;BME280;34770;49.272;11.070;2023-05-02T11:25:35;98113.84;;;18.55;48.18
16030;BME280;34770;49.272;11.070;2023-05-02T11:28:03;98089.78;;;18.65;46.80
16030;BME280;34770;49.272;11.070;2023-05-02T11:30:42;98101.31;;;18.61;47.35
16030;BME280;34770;49.272;11.070;2023-05-02T11:35:34;98088.31;;;20.20;47.71
16030;BME280;34770;49.272;11.070;2023-05-02T11:38:00;98104.84;;;19.68;45.19
16030;BME280;34770;49.272;11.070;2023-05-02T11:40:27;98086.22;;;18.87;47.43
16030;BME280;34770;49.272;11.070;2023-05-02T11:42:54;98108.28;;;18.71;49.22
16030;BME280;34770;49.272;11.070;2023-05-02T11:45:20;98116.56;;;18.63;49.85
16030;BME280;34770;49.272;11.070;2023-05-02T11:47:46;98103.97;;;18.22;49.32
16030;BME280;34770;49.272;11.070;2023-05-02T11:50:13;98094.94;;;18.21;49.56
16030;BME280;34770;49.272;11.070;2023-05-02T11:52:40;98101.69;;;18.41;49.16
16030;BME280;34770;49.272;11.070;2023-05-02T11:55:07;98095.75;;;18.30;48.25
16030;BME280;34770;49.272;11.070;2023-05-02T11:57:35;98092.81;;;17.76;48.80
16030;BME280;34770;49.272;11.070;2023-05-02T12:00:01;98091.13;;;17.43;49.96
16030;BME280;34770;49.272;11.070;2023-05-02T12:02:39;98100.53;;;17.65;50.64
16030;BME280;34770;49.272;11.070;2023-05-02T12:05:06;98106.97;;;16.83;51.51
16030;BME280;34770;49.272;11.070;2023-05-02T12:07:45;98109.56;;;17.01;52.52
16030;BME280;34770;49.272;11.070;2023-05-02T12:10:13;98102.72;;;17.21;51.11
16030;BME280;34770;49.272;11.070;2023-05-02T12:12:41;98111.47;;;17.08;51.42
16030;BME280;34770;49.272;11.070;2023-05-02T12:15:09;98098.91;;;16.73;51.16
16030;BME280;34770;49.272;11.070;2023-05-02T12:17:44;98105.03;;;16.67;52.18
16030;BME280;34770;49.272;11.070;2023-05-02T12:20:29;98124.38;;;16.74;52.99
16030;BME280;34770;49.272;11.070;2023-05-02T12:22:54;98116.75;;;16.10;55.98
16030;BME280;34770;49.272;11.070;2023-05-02T12:25:20;98103.19;;;16.34;56.21
16030;BME280;34770;49.272;11.070;2023-05-02T12:28:02;98119.28;;;16.45;55.04
16030;BME280;34770;49.272;11.070;2023-05-02T12:30:28;98121.97;;;16.29;57.00
16030;BME280;34770;49.272;11.070;2023-05-02T12:32:59;98129.88;;;16.82;53.03
16030;BME280;34770;49.272;11.070;2023-05-02T12:35:28;98124.63;;;16.13;50.64
16030;BME280;34770;49.272;11.070;2023-05-02T12:37:54;98137.19;;;16.32;53.01
16030;BME280;34770;49.272;11.070;2023-05-02T12:40:32;98132.88;;;15.95;51.17
16030;BME280;34770;49.272;11.070;2023-05-02T12:43:27;98134.63;;;15.71;56.25
16030;BME280;34770;49.272;11.070;2023-05-02T12:46:32;98096.81;;;15.40;56.63
16030;BME280;34770;49.272;11.070;2023-05-02T12:49:08;98132.16;;;14.89;57.75
16030;BME280;34770;49.272;11.070;2023-05-02T12:51:37;98163.53;;;14.58;60.70
16030;BME280;34770;49.272;11.070;2023-05-02T12:54:03;98165.59;;;14.73;63.30
16030;BME280;34770;49.272;11.070;2023-05-02T12:56:29;98160.59;;;14.41;64.25
16030;BME280;34770;49.272;11.070;2023-05-02T12:58:58;98161.38;;;14.24;64.20
16030;BME280;34770;49.272;11.070;2023-05-02T13:01:31;98109.69;;;14.05;61.79
16030;BME280;34770;49.272;11.070;2023-05-02T13:04:06;98116.03;;;14.23;65.48
16030;BME280;34770;49.272;11.070;2023-05-02T13:06:34;98155.72;;;14.63;66.84
16030;BME280;34770;49.272;11.070;2023-05-02T13:09:02;98095.22;;;14.32;64.06
16030;BME280;34770;49.272;11.070;2023-05-02T13:11:28;98156.44;;;15.09;62.61
16030;BME280;34770;49.272;11.070;2023-05-02T13:13:54;98103.94;;;15.16;63.76
16030;BME280;34770;49.272;11.070;2023-05-02T13:16:20;98129.13;;;16.22;61.41
16030;BME280;34770;49.272;11.070;2023-05-02T13:18:46;98151.75;;;16.74;55.67
16030;BME280;34770;49.272;11.070;2023-05-02T13:21:11;98174.72;;;16.81;57.20
16030;BME280;34770;49.272;11.070;2023-05-02T13:23:37;98156.31;;;15.98;57.27
16030;BME280;34770;49.272;11.070;2023-05-02T13:26:03;98176.38;;;15.28;63.00
16030;BME280;34770;49.272;11.070;2023-05-02T13:28:29;98189.16;;;14.92;59.75
16030;BME280;34770;49.272;11.070;2023-05-02T13:30:57;98186.97;;;14.50;61.87